Time;durP1;ratioP1;P1;durP2;ratioP2;P2;SDS_P1;SDS_P2;PMS_P1;PMS_P2;Temp;Humidity;BMP_temperature;BMP_pressure;BME280_temperature;BME280_humidity;BME280_pressure;Samples;Min_cycle;Max_cycle;Signal;HPM_P1;HPM_P2
2023/09/08 00:00:46;;;;;;;;;;;;;;;;;;5110904;28;1127;-72
2023/09/08 00:03:12;;;;;;;;;;;;;;;;;;5112023;28;816;-73
2023/09/08 00:05:37;;;;;;;;;;;;;;;;;;5113056;28;1918;-73
2023/09/08 00:08:02;;;;;;;;;;;;;;;;;;5110894;28;1251;-73
2023/09/08 00:10:28;;;;;;;;;;;;;;;;;;5111903;28;986;-72
2023/09/08 00:12:53;;;;;;;;;;;;;;;;;;5094975;28;1343;-72
2023/09/08 00:15:18;;;;;;;;;;;;;;;;;;5111260;28;1170;-72
2023/09/08 00:17:43;;;;;;;;;;;;;;;;;;5112195;28;1050;-73
2023/09/08 00:20:09;;;;;;;;;;;;;;;;;;5110906;28;988;-72
2023/09/08 00:22:34;;;;;;;;;;;;;;;;;;5111997;28;1027;-73
2023/09/08 00:24:59;;;;;;;;;;;;;;;;;;5112063;28;1898;-73
2023/09/08 00:27:25;;;;;;;;;;;;;;;;;;5110687;28;1400;-72
2023/09/08 00:29:50;;;;;;;;;;;;;;;;;;5115600;28;867;-73
2023/09/08 00:32:15;;;;;;;;;;;;;;;;;;5114494;28;915;-73
2023/09/08 00:34:41;;;;;;;;;;;;;;;;;;5114850;28;966;-73
2023/09/08 00:37:07;;;;;;;;;;;;;;;;;;5114789;28;825;-73
2023/09/08 00:39:34;;;;;;;;;;;;;;;;;;5097295;28;1314;-73
2023/09/08 00:41:59;;;;;;;;;;;;;;;;;;5116370;28;1081;-72
2023/09/08 00:44:25;;;;;;;;;;;;;;;;;;5116066;28;1957;-72
2023/09/08 00:46:50;;;;;;;;;;;;;;;;;;5114065;28;907;-72
2023/09/08 00:49:16;;;;;;;;;;;;;;;;;;5114514;28;943;-72
2023/09/08 00:51:42;;;;;;;;;;;;;;;;;;5115487;28;1196;-72
2023/09/08 00:54:07;;;;;;;;;;;;;;;;;;5114370;28;868;-72
2023/09/08 00:56:34;;;;;;;;;;;;;;;;;;5113496;28;1125;-72
2023/09/08 00:58:59;;;;;;;;;;;;;;;;;;5115978;27;931;-72
2023/09/08 01:01:24;;;;;;;;;;;;;;;;;;5115709;28;883;-72
2023/09/08 01:03:50;;;;;;;;;;;;;;;;;;5113693;28;1949;-72
2023/09/08 01:06:16;;;;;;;;;;;;;;;;;;5114363;28;817;-72
2023/09/08 01:08:43;;;;;;;;;;;;;;;;;;5113119;28;1201;-72
2023/09/08 01:11:09;;;;;;;;;;;;;;;;;;5104836;28;1233;-72
2023/09/08 01:13:34;;;;;;;;;;;;;;;;;;5099381;28;1377;-72
2023/09/08 01:16:00;;;;;;;;;;;;;;;;;;5106976;28;1328;-72
2023/09/08 01:18:25;;;;;;;;;;;;;;;;;;5108578;28;1189;-72
2023/09/08 01:21:05;;;;;;;;;;;;;;;;;;5090639;28;1139;-72
2023/09/08 01:23:30;;;;;;;;;;;;;;;;;;5101338;28;1135;-72
2023/09/08 01:25:56;;;;;;;;;;;;;;;;;;5114055;28;1890;-72
2023/09/08 01:28:23;;;;;;;;;;;;;;;;;;5113723;28;1194;-72
2023/09/08 01:30:49;;;;;;;;;;;;;;;;;;5114539;28;804;-73
2023/09/08 01:33:15;;;;;;;;;;;;;;;;;;5096740;28;1440;-72
2023/09/08 01:35:40;;;;;;;;;;;;;;;;;;5115115;27;1037;-72
2023/09/08 01:38:05;;;;;;;;;;;;;;;;;;5115803;28;943;-72
2023/09/08 01:40:30;;;;;;;;;;;;;;;;;;5095194;28;1327;-72
2023/09/08 01:42:56;;;;;;;;;;;;;;;;;;5116443;28;980;-72
2023/09/08 01:45:21;;;;;;;;;;;;;;;;;;5115515;28;1893;-72
2023/09/08 01:47:46;;;;;;;;;;;;;;;;;;5115208;28;841;-72
2023/09/08 01:50:12;;;;;;;;;;;;;;;;;;5114645;28;1199;-72
2023/09/08 01:52:37;;;;;;;;;;;;;;;;;;5113248;28;1167;-73
2023/09/08 01:55:02;;;;;;;;;;;;;;;;;;5096488;28;1317;-72
2023/09/08 01:57:28;;;;;;;;;;;;;;;;;;5114768;28;920;-72
2023/09/08 01:59:53;;;;;;;;;;;;;;;;;;5115007;28;994;-72
2023/09/08 02:02:18;;;;;;;;;;;;;;;;;;5114465;28;1066;-72
2023/09/08 02:04:43;;;;;;;;;;;;;;;;;;5095926;28;1909;-72
2023/09/08 02:07:09;;;;;;;;;;;;;;;;;;5115120;28;911;-73
2023/09/08 02:09:35;;;;;;;;;;;;;;;;;;5095692;28;1065;-72
2023/09/08 02:12:01;;;;;;;;;;;;;;;;;;5113615;28;884;-73
2023/09/08 02:14:27;;;;;;;;;;;;;;;;;;5114353;28;982;-73
2023/09/08 02:16:52;;;;;;;;;;;;;;;;;;5112883;28;1238;-72
2023/09/08 02:19:18;;;;;;;;;;;;;;;;;;5113081;28;813;-73
2023/09/08 02:21:43;;;;;;;;;;;;;;;;;;5113370;28;982;-73
2023/09/08 02:24:08;;;;;;;;;;;;;;;;;;5114071;28;1953;-72
2023/09/08 02:26:33;;;;;;;;;;;;;;;;;;5113360;28;1290;-73
2023/09/08 02:28:59;;;;;;;;;;;;;;;;;;5112437;28;1172;-72
2023/09/08 02:31:26;;;;;;;;;;;;;;;;;;5112114;28;1186;-73
2023/09/08 02:33:51;;;;;;;;;;;;;;;;;;5113190;28;956;-73
2023/09/08 02:36:16;;;;;;;;;;;;;;;;;;5112969;28;848;-72
2023/09/08 02:38:42;;;;;;;;;;;;;;;;;;5113372;28;982;-72
2023/09/08 02:41:07;;;;;;;;;;;;;;;;;;5113447;28;888;-72
2023/09/08 02:43:32;;;;;;;;;;;;;;;;;;5111487;28;1392;-72
2023/09/08 02:45:57;;;;;;;;;;;;;;;;;;5112581;28;1905;-73
2023/09/08 02:48:23;;;;;;;;;;;;;;;;;;5111985;28;1053;-72
2023/09/08 02:50:48;;;;;;;;;;;;;;;;;;5112704;28;1106;-72
2023/09/08 02:53:13;;;;;;;;;;;;;;;;;;5111837;28;1266;-72
2023/09/08 02:55:38;;;;;;;;;;;;;;;;;;5112891;28;844;-73
2023/09/08 02:58:04;;;;;;;;;;;;;;;;;;5113178;28;974;-73
2023/09/08 03:00:29;;;;;;;;;;;;;;;;;;5111634;28;812;-72
2023/09/08 03:02:54;;;;;;;;;;;;;;;;;;5111601;28;852;-73
2023/09/08 03:05:20;;;;;;;;;;;;;;;;;;5113037;28;1917;-73
2023/09/08 03:07:47;;;;;;;;;;;;;;;;;;5112628;28;844;-73
2023/09/08 03:10:12;;;;;;;;;;;;;;;;;;5111401;28;1358;-72
2023/09/08 03:12:38;;;;;;;;;;;;;;;;;;5110608;28;1068;-72
2023/09/08 03:15:04;;;;;;;;;;;;;;;;;;5094585;28;1283;-73
2023/09/08 03:17:29;;;;;;;;;;;;;;;;;;5111417;28;1403;-73
2023/09/08 03:19:54;;;;;;;;;;;;;;;;;;5112390;28;891;-73
2023/09/08 03:22:19;;;;;;;;;;;;;;;;;;5093976;28;1148;-72
2023/09/08 03:24:45;;;;;;;;;;;;;;;;;;5112226;28;1901;-73
2023/09/08 03:27:10;;;;;;;;;;;;;;;;;;5112288;28;970;-73
2023/09/08 03:29:35;;;;;;;;;;;;;;;;;;5110427;28;1022;-72
2023/09/08 03:32:00;;;;;;;;;;;;;;;;;;5111517;28;911;-72
2023/09/08 03:34:26;;;;;;;;;;;;;;;;;;5113039;28;829;-73
2023/09/08 03:36:53;;;;;;;;;;;;;;;;;;5110682;28;1300;-72
2023/09/08 03:39:19;;;;;;;;;;;;;;;;;;5113838;28;824;-73
2023/09/08 03:41:45;;;;;;;;;;;;;;;;;;5111175;28;1352;-73
2023/09/08 03:44:10;;;;;;;;;;;;;;;;;;5112389;28;1905;-72
2023/09/08 03:46:35;;;;;;;;;;;;;;;;;;5113084;28;987;-73
2023/09/08 03:49:01;;;;;;;;;;;;;;;;;;5114291;28;955;-73
2023/09/08 03:51:27;;;;;;;;;;;;;;;;;;5113364;28;1290;-73
2023/09/08 03:53:52;;;;;;;;;;;;;;;;;;5095235;28;1322;-73
2023/09/08 03:56:18;;;;;;;;;;;;;;;;;;5113872;28;959;-73
2023/09/08 03:58:43;;;;;;;;;;;;;;;;;;5113141;28;932;-73
2023/09/08 04:01:08;;;;;;;;;;;;;;;;;;5113735;28;903;-73
2023/09/08 04:03:33;;;;;;;;;;;;;;;;;;5094015;28;1199;-72
2023/09/08 04:05:59;;;;;;;;;;;;;;;;;;5112024;28;1968;-73
2023/09/08 04:08:24;;;;;;;;;;;;;;;;;;5113244;28;979;-73
2023/09/08 04:10:49;;;;;;;;;;;;;;;;;;5110875;28;1211;-73
2023/09/08 04:13:15;;;;;;;;;;;;;;;;;;5112871;28;859;-73
2023/09/08 04:15:40;;;;;;;;;;;;;;;;;;5111274;28;954;-73
2023/09/08 04:18:05;;;;;;;;;;;;;;;;;;5111589;28;1221;-73
2023/09/08 04:20:30;;;;;;;;;;;;;;;;;;5112175;28;833;-73
2023/09/08 04:22:56;;;;;;;;;;;;;;;;;;5110447;28;1321;-73
2023/09/08 04:25:21;;;;;;;;;;;;;;;;;;5110799;28;1902;-73
2023/09/08 04:27:46;;;;;;;;;;;;;;;;;;5110730;28;920;-73
2023/09/08 04:30:12;;;;;;;;;;;;;;;;;;5111739;28;828;-73
2023/09/08 04:32:37;;;;;;;;;;;;;;;;;;5100610;28;1237;-73
2023/09/08 04:35:03;;;;;;;;;;;;;;;;;;5105068;28;1231;-72
2023/09/08 04:37:30;;;;;;;;;;;;;;;;;;5096486;28;1251;-72
2023/09/08 04:39:55;;;;;;;;;;;;;;;;;;5111249;28;1170;-73
2023/09/08 04:42:20;;;;;;;;;;;;;;;;;;5111962;28;1026;-73
2023/09/08 04:44:46;;;;;;;;;;;;;;;;;;5109741;28;2035;-73
2023/09/08 04:47:11;;;;;;;;;;;;;;;;;;5110371;28;860;-72
2023/09/08 04:49:37;;;;;;;;;;;;;;;;;;5110946;28;1138;-73
2023/09/08 04:52:02;;;;;;;;;;;;;;;;;;5111986;28;844;-73
2023/09/08 04:54:28;;;;;;;;;;;;;;;;;;5110589;28;895;-73
2023/09/08 04:56:54;;;;;;;;;;;;;;;;;;5111166;28;855;-73
2023/09/08 04:59:19;;;;;;;;;;;;;;;;;;5112288;28;797;-73
2023/09/08 05:01:44;;;;;;;;;;;;;;;;;;5109776;28;1241;-73
2023/09/08 05:04:10;;;;;;;;;;;;;;;;;;5111920;28;1969;-72
2023/09/08 05:06:35;;;;;;;;;;;;;;;;;;5111735;28;824;-73
2023/09/08 05:09:01;;;;;;;;;;;;;;;;;;5111366;28;999;-73
2023/09/08 05:11:26;;;;;;;;;;;;;;;;;;5110549;28;883;-73
2023/09/08 05:13:52;;;;;;;;;;;;;;;;;;5111943;28;852;-73
2023/09/08 05:16:18;;;;;;;;;;;;;;;;;;5115535;28;872;-73
2023/09/08 05:18:44;;;;;;;;;;;;;;;;;;5115467;28;808;-73
2023/09/08 05:21:09;;;;;;;;;;;;;;;;;;5111087;28;1292;-73
2023/09/08 05:23:34;;;;;;;;;;;;;;;;;;5075669;28;1241;-72
2023/09/08 05:26:00;;;;;;;;;;;;;;;;;;5093081;28;1897;-73
2023/09/08 05:28:25;;;;;;;;;;;;;;;;;;5094991;28;852;-73
2023/09/08 05:30:51;;;;;;;;;;;;;;;;;;5092896;28;861;-73
2023/09/08 05:33:16;;;;;;;;;;;;;;;;;;5093475;28;1249;-73
2023/09/08 05:35:41;;;;;;;;;;;;;;;;;;5093492;28;991;-73
2023/09/08 05:38:07;;;;;;;;;;;;;;;;;;5093754;28;1451;-73
2023/09/08 05:40:32;;;;;;;;;;;;;;;;;;5075826;28;1368;-73
2023/09/08 05:42:57;;;;;;;;;;;;;;;;;;5095223;28;953;-72
2023/09/08 05:45:23;;;;;;;;;;;;;;;;;;5093865;28;1905;-72
2023/09/08 05:47:49;;;;;;;;;;;;;;;;;;5092991;28;1345;-73
2023/09/08 05:50:14;;;;;;;;;;;;;;;;;;5094636;28;1151;-73
2023/09/08 05:52:39;;;;;;;;;;;;;;;;;;5094112;28;847;-73
2023/09/08 05:55:05;;;;;;;;;;;;;;;;;;5076541;28;1293;-73
2023/09/08 05:57:30;;;;;;;;;;;;;;;;;;5094236;28;1014;-73
2023/09/08 05:59:55;;;;;;;;;;;;;;;;;;5092287;28;916;-73
2023/09/08 06:02:20;;;;;;;;;;;;;;;;;;5092410;28;1157;-73
2023/09/08 06:04:46;;;;;;;;;;;;;;;;;;5091756;28;1970;-73
2023/09/08 06:07:11;;;;;;;;;;;;;;;;;;5092352;28;876;-73
2023/09/08 06:09:37;;;;;;;;;;;;;;;;;;5093609;28;974;-73
2023/09/08 06:12:03;;;;;;;;;;;;;;;;;;5075496;28;1240;-73
2023/09/08 06:14:28;;;;;;;;;;;;;;;;;;5092290;28;963;-73
2023/09/08 06:16:53;;;;;;;;;;;;;;;;;;5091693;28;898;-73
2023/09/08 06:19:18;;;;;;;;;;;;;;;;;;5093632;28;840;-72
2023/09/08 06:21:44;;;;;;;;;;;;;;;;;;5093600;28;844;-73
2023/09/08 06:24:09;;;;;;;;;;;;;;;;;;5092138;28;1961;-73
2023/09/08 06:26:34;;;;;;;;;;;;;;;;;;5090987;28;1302;-74
2023/09/08 06:29:00;;;;;;;;;;;;;;;;;;5091607;28;1143;-74
2023/09/08 06:31:25;;;;;;;;;;;;;;;;;;5092912;28;950;-73
2023/09/08 06:33:51;;;;;;;;;;;;;;;;;;5090861;28;1331;-73
2023/09/08 06:36:17;;;;;;;;;;;;;;;;;;5075061;28;1369;-73
2023/09/08 06:38:43;;;;;;;;;;;;;;;;;;5090708;28;1242;-73
2023/09/08 06:41:09;;;;;;;;;;;;;;;;;;5074369;28;1195;-74
2023/09/08 06:43:34;;;;;;;;;;;;;;;;;;5092919;28;870;-73
2023/09/08 06:46:00;;;;;;;;;;;;;;;;;;5091822;28;1890;-73
2023/09/08 06:48:25;;;;;;;;;;;;;;;;;;5092847;28;923;-73
2023/09/08 06:50:54;;;;;;;;;;;;;;;;;;5091529;28;1192;-73
2023/09/08 06:53:19;;;;;;;;;;;;;;;;;;5091387;28;1225;-73
2023/09/08 06:55:44;;;;;;;;;;;;;;;;;;5090587;28;1661;-73
2023/09/08 06:58:09;;;;;;;;;;;;;;;;;;5092884;28;872;-73
2023/09/08 07:00:35;;;;;;;;;;;;;;;;;;5092647;28;884;-72
2023/09/08 07:03:02;;;;;;;;;;;;;;;;;;5092610;28;1026;-72
2023/09/08 07:05:27;;;;;;;;;;;;;;;;;;5092151;28;1976;-73
2023/09/08 07:07:52;;;;;;;;;;;;;;;;;;5091559;28;1420;-72
2023/09/08 07:10:18;;;;;;;;;;;;;;;;;;5093358;28;894;-72
2023/09/08 07:12:43;;;;;;;;;;;;;;;;;;5074014;28;1338;-73
2023/09/08 07:15:09;;;;;;;;;;;;;;;;;;5091858;28;888;-73
2023/09/08 07:17:34;;;;;;;;;;;;;;;;;;5091181;28;1342;-74
2023/09/08 07:19:59;;;;;;;;;;;;;;;;;;5090639;28;1188;-74
2023/09/08 07:22:25;;;;;;;;;;;;;;;;;;5073886;28;1393;-74
2023/09/08 07:24:50;;;;;;;;;;;;;;;;;;5090114;28;1886;-75
2023/09/08 07:27:15;;;;;;;;;;;;;;;;;;5091137;28;912;-74
2023/09/08 07:29:41;;;;;;;;;;;;;;;;;;5090390;28;1400;-73
2023/09/08 07:32:06;;;;;;;;;;;;;;;;;;5091225;28;749;-73
2023/09/08 07:34:32;;;;;;;;;;;;;;;;;;5092289;28;856;-73
2023/09/08 07:36:57;;;;;;;;;;;;;;;;;;5091555;28;978;-72
2023/09/08 07:39:23;;;;;;;;;;;;;;;;;;5090061;28;1211;-72
2023/09/08 07:41:48;;;;;;;;;;;;;;;;;;5090098;28;1237;-72
2023/09/08 07:44:13;;;;;;;;;;;;;;;;;;5092678;28;1954;-73
2023/09/08 07:46:38;;;;;;;;;;;;;;;;;;5090994;28;1670;-72
2023/09/08 07:49:03;;;;;;;;;;;;;;;;;;5092656;28;769;-73
2023/09/08 07:51:29;;;;;;;;;;;;;;;;;;5092072;28;1353;-72
2023/09/08 07:53:55;;;;;;;;;;;;;;;;;;5091790;28;959;-73
2023/09/08 07:56:21;;;;;;;;;;;;;;;;;;5091386;28;1233;-73
2023/09/08 07:58:46;;;;;;;;;;;;;;;;;;5091704;28;868;-72
2023/09/08 08:01:12;;;;;;;;;;;;;;;;;;5091904;28;1006;-73
2023/09/08 08:03:37;;;;;;;;;;;;;;;;;;5092873;28;852;-72
2023/09/08 08:06:03;;;;;;;;;;;;;;;;;;5091754;28;1909;-73
2023/09/08 08:08:28;;;;;;;;;;;;;;;;;;5092676;28;773;-73
2023/09/08 08:10:53;;;;;;;;;;;;;;;;;;5096437;28;1186;-72
2023/09/08 08:13:19;;;;;;;;;;;;;;;;;;5102810;28;1136;-73
2023/09/08 08:15:47;;;;;;;;;;;;;;;;;;5092694;28;1139;-73
2023/09/08 08:18:12;;;;;;;;;;;;;;;;;;5103012;28;1213;-73
2023/09/08 08:20:37;;;;;;;;;;;;;;;;;;5095665;28;1151;-72
2023/09/08 08:23:03;;;;;;;;;;;;;;;;;;5089132;28;1180;-72
2023/09/08 08:25:28;;;;;;;;;;;;;;;;;;5091450;28;1905;-73
2023/09/08 08:27:54;;;;;;;;;;;;;;;;;;5089694;28;1337;-72
2023/09/08 08:30:20;;;;;;;;;;;;;;;;;;5091417;28;852;-73
2023/09/08 08:32:45;;;;;;;;;;;;;;;;;;5090687;28;867;-73
2023/09/08 08:35:11;;;;;;;;;;;;;;;;;;5090109;28;856;-73
2023/09/08 08:37:36;;;;;;;;;;;;;;;;;;5091532;28;939;-73
2023/09/08 08:40:02;;;;;;;;;;;;;;;;;;5089569;28;904;-72
2023/09/08 08:42:34;;;;;;;;;;;;;;;;;;5090195;28;1313;-72
2023/09/08 08:45:00;;;;;;;;;;;;;;;;;;5090739;28;1902;-73
2023/09/08 08:47:26;;;;;;;;;;;;;;;;;;5073309;28;1338;-72
2023/09/08 08:49:53;;;;;;;;;;;;;;;;;;5092530;28;1223;-72
2023/09/08 08:52:19;;;;;;;;;;;;;;;;;;5094065;28;1385;-73
2023/09/08 08:54:45;;;;;;;;;;;;;;;;;;5095417;28;835;-73
2023/09/08 08:57:11;;;;;;;;;;;;;;;;;;5094557;28;880;-73
2023/09/08 08:59:36;;;;;;;;;;;;;;;;;;5093818;28;1284;-73
2023/09/08 09:02:03;;;;;;;;;;;;;;;;;;5076584;28;1211;-72
2023/09/08 09:04:29;;;;;;;;;;;;;;;;;;5093757;28;1911;-73
2023/09/08 09:06:54;;;;;;;;;;;;;;;;;;5094483;28;840;-72
2023/09/08 09:09:20;;;;;;;;;;;;;;;;;;5095004;28;742;-73
2023/09/08 09:11:45;;;;;;;;;;;;;;;;;;5098052;28;1223;-73
2023/09/08 09:14:11;;;;;;;;;;;;;;;;;;5094909;28;1223;-73
2023/09/08 09:16:40;;;;;;;;;;;;;;;;;;5095297;28;825;-73
2023/09/08 09:19:05;;;;;;;;;;;;;;;;;;5094789;28;923;-73
2023/09/08 09:21:44;;;;;;;;;;;;;;;;;;5094898;28;848;-72
2023/09/08 09:24:16;;;;;;;;;;;;;;;;;;5092875;28;1890;-73
2023/09/08 09:26:42;;;;;;;;;;;;;;;;;;5092991;28;1088;-74
2023/09/08 09:29:13;;;;;;;;;;;;;;;;;;5094165;28;813;-73
2023/09/08 09:31:55;;;;;;;;;;;;;;;;;;5092687;28;1152;-73
2023/09/08 09:34:21;;;;;;;;;;;;;;;;;;5091706;28;1321;-73
2023/09/08 09:36:50;;;;;;;;;;;;;;;;;;5093040;28;904;-73
2023/09/08 09:39:23;;;;;;;;;;;;;;;;;;5092479;28;1326;-73
2023/09/08 09:41:48;;;;;;;;;;;;;;;;;;5093953;28;987;-72
2023/09/08 09:44:15;;;;;;;;;;;;;;;;;;5093879;28;1890;-73
2023/09/08 09:46:47;;;;;;;;;;;;;;;;;;5093383;28;1413;-72
2023/09/08 09:49:13;;;;;;;;;;;;;;;;;;5094821;28;824;-72
2023/09/08 09:51:48;;;;;;;;;;;;;;;;;;5094448;28;1270;-72
2023/09/08 09:54:14;;;;;;;;;;;;;;;;;;5076320;28;1348;-72
2023/09/08 09:56:40;;;;;;;;;;;;;;;;;;5094875;28;860;-72
2023/09/08 09:59:09;;;;;;;;;;;;;;;;;;5094467;28;872;-72
2023/09/08 10:01:35;;;;;;;;;;;;;;;;;;5093908;28;888;-72
2023/09/08 10:04:00;;;;;;;;;;;;;;;;;;5093660;28;1010;-72
2023/09/08 10:06:26;;;;;;;;;;;;;;;;;;5093982;28;1903;-73
2023/09/08 10:08:51;;;;;;;;;;;;;;;;;;5092442;28;1174;-73
2023/09/08 10:11:19;;;;;;;;;;;;;;;;;;5092618;28;1215;-73
2023/09/08 10:13:46;;;;;;;;;;;;;;;;;;5094450;28;832;-73
2023/09/08 10:16:13;;;;;;;;;;;;;;;;;;5094400;28;998;-72
2023/09/08 10:18:39;;;;;;;;;;;;;;;;;;5094105;28;958;-72
2023/09/08 10:21:04;;;;;;;;;;;;;;;;;;5091574;28;1277;-73
2023/09/08 10:23:40;;;;;;;;;;;;;;;;;;5093834;28;840;-72
2023/09/08 10:26:09;;;;;;;;;;;;;;;;;;5093113;28;1969;-72
2023/09/08 10:28:35;;;;;;;;;;;;;;;;;;5092449;28;1261;-72
2023/09/08 10:31:02;;;;;;;;;;;;;;;;;;5093986;28;821;-72
2023/09/08 10:33:28;;;;;;;;;;;;;;;;;;5093835;28;1569;-73
2023/09/08 10:35:54;;;;;;;;;;;;;;;;;;5098173;28;966;-73
2023/09/08 10:38:26;;;;;;;;;;;;;;;;;;5093782;28;817;-72
2023/09/08 10:40:52;;;;;;;;;;;;;;;;;;5091488;28;1262;-73
2023/09/08 10:43:18;;;;;;;;;;;;;;;;;;5091411;28;1405;-73
2023/09/08 10:45:44;;;;;;;;;;;;;;;;;;5092038;28;1922;-73
2023/09/08 10:48:10;;;;;;;;;;;;;;;;;;5092504;28;797;-73
2023/09/08 10:50:40;;;;;;;;;;;;;;;;;;5091439;28;1489;-72
2023/09/08 10:53:12;;;;;;;;;;;;;;;;;;5092474;28;911;-71
2023/09/08 10:55:42;;;;;;;;;;;;;;;;;;5091730;28;1270;-72
2023/09/08 10:58:11;;;;;;;;;;;;;;;;;;5091486;28;781;-72
2023/09/08 11:00:43;;;;;;;;;;;;;;;;;;5093112;28;860;-72
2023/09/08 11:03:09;;;;;;;;;;;;;;;;;;5092160;28;801;-71
2023/09/08 11:05:35;;;;;;;;;;;;;;;;;;5093115;28;1963;-72
2023/09/08 11:08:00;;;;;;;;;;;;;;;;;;5090967;28;895;-71
2023/09/08 11:10:26;;;;;;;;;;;;;;;;;;5092576;28;841;-72
2023/09/08 11:12:51;;;;;;;;;;;;;;;;;;5091662;28;884;-73
2023/09/08 11:15:17;;;;;;;;;;;;;;;;;;5092674;28;817;-72
2023/09/08 11:17:42;;;;;;;;;;;;;;;;;;5092261;28;896;-73
2023/09/08 11:20:08;;;;;;;;;;;;;;;;;;5091460;28;915;-72
2023/09/08 11:22:34;;;;;;;;;;;;;;;;;;5092219;28;852;-72
2023/09/08 11:25:01;;;;;;;;;;;;;;;;;;5091992;28;1965;-72
2023/09/08 11:27:27;;;;;;;;;;;;;;;;;;5091795;28;1293;-72
2023/09/08 11:29:53;;;;;;;;;;;;;;;;;;5093249;28;903;-72
2023/09/08 11:32:18;;;;;;;;;;;;;;;;;;5093204;28;1162;-72
2023/09/08 11:34:43;;;;;;;;;;;;;;;;;;5091146;28;857;-72
2023/09/08 11:37:13;;;;;;;;;;;;;;;;;;5074480;28;1074;-71
2023/09/08 11:39:42;;;;;;;;;;;;;;;;;;5092682;28;883;-73
2023/09/08 11:42:08;;;;;;;;;;;;;;;;;;5090458;28;892;-73
2023/09/08 11:44:34;;;;;;;;;;;;;;;;;;5092218;28;1943;-72
2023/09/08 11:46:59;;;;;;;;;;;;;;;;;;5091426;28;919;-73
2023/09/08 11:49:25;;;;;;;;;;;;;;;;;;5091512;28;915;-72
2023/09/08 11:51:50;;;;;;;;;;;;;;;;;;5090017;28;1438;-72
2023/09/08 11:54:16;;;;;;;;;;;;;;;;;;5090503;28;879;-72
2023/09/08 11:56:41;;;;;;;;;;;;;;;;;;5091622;28;828;-73
2023/09/08 11:59:07;;;;;;;;;;;;;;;;;;5090994;28;1238;-73
2023/09/08 12:01:32;;;;;;;;;;;;;;;;;;5073712;28;1253;-73
2023/09/08 12:03:58;;;;;;;;;;;;;;;;;;5091495;28;939;-72
2023/09/08 12:06:24;;;;;;;;;;;;;;;;;;5091866;28;1902;-72
2023/09/08 12:08:49;;;;;;;;;;;;;;;;;;5091170;28;1030;-72
2023/09/08 12:11:14;;;;;;;;;;;;;;;;;;5091146;28;875;-72
2023/09/08 12:13:40;;;;;;;;;;;;;;;;;;5090959;28;1218;-73
2023/09/08 12:16:18;;;;;;;;;;;;;;;;;;5089884;28;1170;-73
2023/09/08 12:18:45;;;;;;;;;;;;;;;;;;5090685;28;928;-73
2023/09/08 12:21:10;;;;;;;;;;;;;;;;;;5091030;28;895;-73
2023/09/08 12:23:46;;;;;;;;;;;;;;;;;;5090493;28;682;-73
2023/09/08 12:26:11;;;;;;;;;;;;;;;;;;5093767;28;1961;-73
2023/09/08 12:28:37;;;;;;;;;;;;;;;;;;5094429;28;916;-73
2023/09/08 12:31:03;;;;;;;;;;;;;;;;;;5094110;28;1172;-73
2023/09/08 12:33:28;;;;;;;;;;;;;;;;;;5095334;28;911;-74
2023/09/08 12:35:53;;;;;;;;;;;;;;;;;;5095054;28;950;-73
2023/09/08 12:38:19;;;;;;;;;;;;;;;;;;5093967;28;833;-74
2023/09/08 12:40:44;;;;;;;;;;;;;;;;;;5095551;28;828;-73
2023/09/08 12:43:09;;;;;;;;;;;;;;;;;;5095690;28;911;-73
2023/09/08 12:45:35;;;;;;;;;;;;;;;;;;5093308;28;1947;-73
2023/09/08 12:48:02;;;;;;;;;;;;;;;;;;5093093;28;1370;-73
2023/09/08 12:50:27;;;;;;;;;;;;;;;;;;5093536;28;1209;-72
2023/09/08 12:52:53;;;;;;;;;;;;;;;;;;5094458;28;1081;-73
2023/09/08 12:55:19;;;;;;;;;;;;;;;;;;5094741;28;884;-74
2023/09/08 12:57:44;;;;;;;;;;;;;;;;;;5093716;28;1137;-72
2023/09/08 13:00:09;;;;;;;;;;;;;;;;;;5092906;28;1443;-73
2023/09/08 13:02:35;;;;;;;;;;;;;;;;;;5092874;28;1224;-73
2023/09/08 13:05:00;;;;;;;;;;;;;;;;;;5094436;28;1971;-73
2023/09/08 13:07:26;;;;;;;;;;;;;;;;;;5093576;28;1163;-73
2023/09/08 13:09:51;;;;;;;;;;;;;;;;;;5092807;28;816;-72
2023/09/08 13:12:16;;;;;;;;;;;;;;;;;;5094474;28;840;-72
2023/09/08 13:14:43;;;;;;;;;;;;;;;;;;5093207;28;821;-72
2023/09/08 13:17:08;;;;;;;;;;;;;;;;;;5093955;28;883;-72
2023/09/08 13:19:34;;;;;;;;;;;;;;;;;;5076731;28;1488;-73
2023/09/08 13:21:59;;;;;;;;;;;;;;;;;;5076326;28;1491;-72
2023/09/08 13:24:24;;;;;;;;;;;;;;;;;;5093894;28;1905;-72
2023/09/08 13:26:50;;;;;;;;;;;;;;;;;;5077720;28;1329;-73
2023/09/08 13:29:16;;;;;;;;;;;;;;;;;;5077426;28;1243;-73
2023/09/08 13:31:42;;;;;;;;;;;;;;;;;;5076238;28;1276;-73
2023/09/08 13:34:07;;;;;;;;;;;;;;;;;;5093023;28;1426;-74
2023/09/08 13:36:32;;;;;;;;;;;;;;;;;;5083747;28;1348;-73
2023/09/08 13:38:58;;;;;;;;;;;;;;;;;;5108525;28;1218;-73
2023/09/08 13:41:23;;;;;;;;;;;;;;;;;;5112445;28;1503;-73
2023/09/08 13:43:49;;;;;;;;;;;;;;;;;;5112790;28;1441;-73
2023/09/08 13:46:14;;;;;;;;;;;;;;;;;;5113714;28;1889;-73
2023/09/08 13:48:39;;;;;;;;;;;;;;;;;;5113101;28;785;-73
2023/09/08 13:51:04;;;;;;;;;;;;;;;;;;5112864;28;1235;-73
2023/09/08 13:53:36;;;;;;;;;;;;;;;;;;5113009;28;836;-73
2023/09/08 13:56:02;;;;;;;;;;;;;;;;;;5112690;28;1310;-72
2023/09/08 13:58:27;;;;;;;;;;;;;;;;;;5112366;28;1213;-73
2023/09/08 14:00:53;;;;;;;;;;;;;;;;;;5112221;28;869;-73
2023/09/08 14:03:18;;;;;;;;;;;;;;;;;;5113943;28;816;-73
2023/09/08 14:05:43;;;;;;;;;;;;;;;;;;5112396;28;1914;-73
2023/09/08 14:08:09;;;;;;;;;;;;;;;;;;5113186;28;923;-73
2023/09/08 14:10:35;;;;;;;;;;;;;;;;;;5112664;28;1420;-73
2023/09/08 14:13:00;;;;;;;;;;;;;;;;;;5095059;28;1470;-73
2023/09/08 14:15:25;;;;;;;;;;;;;;;;;;5112360;28;844;-73
2023/09/08 14:17:50;;;;;;;;;;;;;;;;;;5114259;28;828;-73
2023/09/08 14:20:16;;;;;;;;;;;;;;;;;;5112338;28;875;-74
2023/09/08 14:22:41;;;;;;;;;;;;;;;;;;5112322;28;1255;-73
2023/09/08 14:25:06;;;;;;;;;;;;;;;;;;5113528;28;1890;-72
2023/09/08 14:27:33;;;;;;;;;;;;;;;;;;5113633;28;828;-73
2023/09/08 14:29:58;;;;;;;;;;;;;;;;;;5111769;28;1298;-73
2023/09/08 14:32:23;;;;;;;;;;;;;;;;;;5114225;28;813;-73
2023/09/08 14:34:49;;;;;;;;;;;;;;;;;;5095914;28;1236;-73
2023/09/08 14:37:14;;;;;;;;;;;;;;;;;;5112414;28;837;-73
2023/09/08 14:39:40;;;;;;;;;;;;;;;;;;5112443;28;856;-74
2023/09/08 14:42:05;;;;;;;;;;;;;;;;;;5111866;28;1019;-73
2023/09/08 14:44:30;;;;;;;;;;;;;;;;;;5113831;28;1955;-74
2023/09/08 14:46:55;;;;;;;;;;;;;;;;;;5112583;28;903;-73
2023/09/08 14:49:21;;;;;;;;;;;;;;;;;;5111854;28;1252;-73
2023/09/08 14:51:46;;;;;;;;;;;;;;;;;;5112806;28;1179;-74
2023/09/08 14:54:11;;;;;;;;;;;;;;;;;;5111004;28;1221;-74
2023/09/08 14:56:36;;;;;;;;;;;;;;;;;;5111120;28;1410;-74
2023/09/08 14:59:02;;;;;;;;;;;;;;;;;;5111040;28;1269;-75
2023/09/08 15:01:27;;;;;;;;;;;;;;;;;;5112481;28;896;-75
2023/09/08 15:03:54;;;;;;;;;;;;;;;;;;5111522;28;896;-75
2023/09/08 15:06:20;;;;;;;;;;;;;;;;;;5094678;28;1974;-74
2023/09/08 15:08:46;;;;;;;;;;;;;;;;;;5112360;28;962;-74
2023/09/08 15:11:11;;;;;;;;;;;;;;;;;;5110987;28;1316;-74
2023/09/08 15:13:37;;;;;;;;;;;;;;;;;;5113618;28;896;-74
2023/09/08 15:16:02;;;;;;;;;;;;;;;;;;5094876;28;1335;-74
2023/09/08 15:18:28;;;;;;;;;;;;;;;;;;5112189;28;903;-75
2023/09/08 15:20:53;;;;;;;;;;;;;;;;;;5094845;28;1301;-74
2023/09/08 15:23:19;;;;;;;;;;;;;;;;;;5113652;28;843;-74
2023/09/08 15:25:55;;;;;;;;;;;;;;;;;;5111868;28;1897;-74
2023/09/08 15:28:20;;;;;;;;;;;;;;;;;;5114633;28;1225;-74
2023/09/08 15:30:52;;;;;;;;;;;;;;;;;;5113747;28;1309;-74
2023/09/08 15:33:19;;;;;;;;;;;;;;;;;;5113353;28;824;-74
2023/09/08 15:35:45;;;;;;;;;;;;;;;;;;5112103;28;1522;-74
2023/09/08 15:38:10;;;;;;;;;;;;;;;;;;5113500;28;891;-74
2023/09/08 15:40:54;;;;;;;;;;;;;;;;;;5113047;28;910;-74
2023/09/08 15:43:19;;;;;;;;;;;;;;;;;;5113353;28;880;-74
2023/09/08 15:45:44;;;;;;;;;;;;;;;;;;5111806;28;1960;-74
2023/09/08 15:48:10;;;;;;;;;;;;;;;;;;5112510;28;855;-74
2023/09/08 15:50:35;;;;;;;;;;;;;;;;;;5112780;28;1049;-74
2023/09/08 15:53:00;;;;;;;;;;;;;;;;;;5112888;28;801;-73
2023/09/08 15:55:25;;;;;;;;;;;;;;;;;;5111732;28;1290;-74
2023/09/08 15:57:51;;;;;;;;;;;;;;;;;;5112288;28;821;-74
2023/09/08 16:00:16;;;;;;;;;;;;;;;;;;5111335;28;844;-74
2023/09/08 16:02:41;;;;;;;;;;;;;;;;;;5112079;28;983;-74
2023/09/08 16:05:07;;;;;;;;;;;;;;;;;;5110342;28;1965;-74
2023/09/08 16:07:33;;;;;;;;;;;;;;;;;;5110484;28;856;-73
2023/09/08 16:09:58;;;;;;;;;;;;;;;;;;5111627;28;899;-74
2023/09/08 16:12:23;;;;;;;;;;;;;;;;;;5112793;28;765;-74
2023/09/08 16:14:49;;;;;;;;;;;;;;;;;;5110620;28;888;-74
2023/09/08 16:17:14;;;;;;;;;;;;;;;;;;5110457;28;881;-74
2023/09/08 16:19:39;;;;;;;;;;;;;;;;;;5110408;28;900;-74
2023/09/08 16:22:06;;;;;;;;;;;;;;;;;;5109998;28;1308;-74
2023/09/08 16:24:32;;;;;;;;;;;;;;;;;;5112077;28;1970;-74
2023/09/08 16:26:58;;;;;;;;;;;;;;;;;;5110095;28;1204;-74
2023/09/08 16:29:23;;;;;;;;;;;;;;;;;;5110466;28;911;-74
2023/09/08 16:31:48;;;;;;;;;;;;;;;;;;5110227;28;892;-74
2023/09/08 16:34:14;;;;;;;;;;;;;;;;;;5111209;28;959;-74
2023/09/08 16:36:39;;;;;;;;;;;;;;;;;;5111236;28;959;-74
2023/09/08 16:39:04;;;;;;;;;;;;;;;;;;5111366;28;849;-74
2023/09/08 16:41:30;;;;;;;;;;;;;;;;;;5110256;28;927;-74
2023/09/08 16:43:55;;;;;;;;;;;;;;;;;;5110141;28;860;-73
2023/09/08 16:46:20;;;;;;;;;;;;;;;;;;5109628;28;1898;-75
2023/09/08 16:48:45;;;;;;;;;;;;;;;;;;5111033;28;840;-74
2023/09/08 16:51:11;;;;;;;;;;;;;;;;;;5110544;28;1319;-73
2023/09/08 16:53:36;;;;;;;;;;;;;;;;;;5109517;28;1178;-73
2023/09/08 16:56:08;;;;;;;;;;;;;;;;;;5109247;28;1547;-74
2023/09/08 16:58:33;;;;;;;;;;;;;;;;;;5111555;28;924;-73
2023/09/08 17:00:58;;;;;;;;;;;;;;;;;;5109861;28;915;-73